Caribbean Princess — ZCDG8 — position and weather

sailwx.info

Track history (hours):
 
Tides and Currents Weather Stations Pressure Air Temp Water Temp Dewpoint Dewpoint Depression Visibility Wind Speed Wind Dir Waves Ship Positions

Caribbean Princess

Operator: Princess Cruises

Last reported at 2020-Mar-28 12:30 UTC. Time now 2020-Mar-29 15:27 UTC.
Position N 26°19' W 079°14'.

Type: Passenger vessel. MMSI: 310423000.

Date/timePositionNaut miles runAvg speedWind from/ knotsBaromVisibWave heightAir tempDewpointWater temp
2020-Mar-28 12:30N 26°19' W 079°14'4 7.3
2020-Mar-28 12:00N 26°22' W 079°16'4 7.4
2020-Mar-28 11:29N 26°25' W 079°19'13 1.6
2020-Mar-28 03:00N 26°17' W 079°31'510.8
2020-Mar-28 02:30N 26°12' W 079°32'610.7
2020-Mar-28 01:59N 26°06' W 079°34'1111.0
2020-Mar-28 01:00N 25°56' W 079°38'2811.2
2020-Mar-27 22:30N 25°28' W 079°36'6 5.7
2020-Mar-27 21:28N 25°34' W 079°34'28 6.2
2020-Mar-27 16:59N 26°01' W 079°28'4 7.2
2020-Mar-27 16:30N 26°04' W 079°26'4 7.6
2020-Mar-27 16:00N 26°08' W 079°24'8 7.3
2020-Mar-27 14:59N 26°15' W 079°23'5 0.5
2020-Mar-27 03:30N 26°11' W 079°19'15 0.8
2020-Mar-26 09:58N 26°07' W 079°03'22 0.5
2020-Mar-24 15:17N 26°20' W 079°22'6 4.6
2020-Mar-24 13:58N 26°19' W 079°29'511.4
2020-Mar-24 13:30N 26°14' W 079°30'5 9.0
2020-Mar-24 12:55N 26°13' W 079°24'3 0.2
2020-Mar-24 01:30N 26°13' W 079°27'8 8.0
2020-Mar-24 00:27N 26°13' W 079°18'28 0.6
2020-Mar-21 23:30N 26°13' W 079°49'1010.2
2020-Mar-21 22:30N 26°06' W 079°57'9 4.7
2020-Mar-21 20:30N 26°06' W 080°07'0 0.0
2020-Mar-21 19:30N 26°06' W 080°07'0 0.0
2020-Mar-21 18:00N 26°06' W 080°07'0 0.0
2020-Mar-21 17:30N 26°06' W 080°07'0 0.0
2020-Mar-21 16:30N 26°06' W 080°07'0 0.0
2020-Mar-21 13:30N 26°06' W 080°07'0 0.0
2020-Mar-21 11:30N 26°06' W 080°07'11 5.5
2020-Mar-21 09:30N 26°06' W 079°55'49 7.1
2020-Mar-21 02:39N 26°55' W 079°49'1 7.4
2020-Mar-21 02:30N 26°56' W 079°48'4 7.2
2020-Mar-21 01:58N 26°60' W 079°47'  
Track history (hours):
 
Tides and Currents Weather Stations Pressure Air Temp Water Temp Dewpoint Dewpoint Depression Visibility Wind Speed Wind Dir Waves Ship Positions

Caribbean Princess

Operator: Princess Cruises

Last reported at 2020-Mar-28 12:30 UTC. Time now 2020-Mar-29 15:27 UTC.
Position N 26°19' W 079°14'.

Type: Passenger vessel. MMSI: 310423000.

Date/timePositionNaut miles runAvg speedWind from/ knotsBaromVisibWave heightAir tempDewpointWater temp
2020-Mar-28 12:30N 26°19' W 079°14'4 7.3
2020-Mar-28 12:00N 26°22' W 079°16'4 7.4
2020-Mar-28 11:29N 26°25' W 079°19'13 1.6
2020-Mar-28 03:00N 26°17' W 079°31'510.8
2020-Mar-28 02:30N 26°12' W 079°32'610.7
2020-Mar-28 01:59N 26°06' W 079°34'1111.0
2020-Mar-28 01:00N 25°56' W 079°38'2811.2
2020-Mar-27 22:30N 25°28' W 079°36'6 5.7
2020-Mar-27 21:28N 25°34' W 079°34'28 6.2
2020-Mar-27 16:59N 26°01' W 079°28'4 7.2
2020-Mar-27 16:30N 26°04' W 079°26'4 7.6
2020-Mar-27 16:00N 26°08' W 079°24'8 7.3
2020-Mar-27 14:59N 26°15' W 079°23'5 0.5
2020-Mar-27 03:30N 26°11' W 079°19'15 0.8
2020-Mar-26 09:58N 26°07' W 079°03'22 0.5
2020-Mar-24 15:17N 26°20' W 079°22'6 4.6
2020-Mar-24 13:58N 26°19' W 079°29'511.4
2020-Mar-24 13:30N 26°14' W 079°30'5 9.0
2020-Mar-24 12:55N 26°13' W 079°24'3 0.2
2020-Mar-24 01:30N 26°13' W 079°27'8 8.0
2020-Mar-24 00:27N 26°13' W 079°18'28 0.6
2020-Mar-21 23:30N 26°13' W 079°49'1010.2
2020-Mar-21 22:30N 26°06' W 079°57'9 4.7
2020-Mar-21 20:30N 26°06' W 080°07'0 0.0
2020-Mar-21 19:30N 26°06' W 080°07'0 0.0
2020-Mar-21 18:00N 26°06' W 080°07'0 0.0
2020-Mar-21 17:30N 26°06' W 080°07'0 0.0
2020-Mar-21 16:30N 26°06' W 080°07'0 0.0
2020-Mar-21 13:30N 26°06' W 080°07'0 0.0
2020-Mar-21 11:30N 26°06' W 080°07'11 5.5
2020-Mar-21 09:30N 26°06' W 079°55'49 7.1
2020-Mar-21 02:39N 26°55' W 079°49'1 7.4
2020-Mar-21 02:30N 26°56' W 079°48'4 7.2
2020-Mar-21 01:58N 26°60' W 079°47'  

Dump ship's entire track history